createdAt,value
2023-05-11T00:00:47.527Z,31.23
2023-05-11T00:03:15.850Z,29.63
2023-05-11T00:05:48.191Z,31.27
2023-05-11T00:08:17.455Z,28.38
2023-05-11T00:10:50.026Z,29.95
2023-05-11T00:13:18.535Z,31.38
2023-05-11T00:15:46.721Z,28.85
2023-05-11T00:18:14.875Z,32.72
2023-05-11T00:20:43.170Z,29.53
2023-05-11T00:23:11.685Z,33.00
2023-05-11T00:25:39.873Z,31.85
2023-05-11T00:28:10.675Z,32.15
2023-05-11T00:30:40.790Z,30.45
2023-05-11T00:33:08.979Z,32.00
2023-05-11T00:35:37.022Z,35.10
2023-05-11T00:38:05.233Z,36.97
2023-05-11T00:40:33.904Z,32.13
2023-05-11T00:43:02.206Z,31.53
2023-05-11T00:45:32.232Z,30.40
2023-05-11T00:48:00.372Z,33.20
2023-05-11T00:50:29.021Z,38.28
2023-05-11T00:52:58.114Z,33.90
2023-05-11T00:55:26.877Z,33.60
2023-05-11T00:57:55.826Z,36.80
2023-05-11T01:00:24.362Z,35.50
2023-05-11T01:02:54.589Z,36.47
2023-05-11T01:05:22.895Z,34.00
2023-05-11T01:08:05.785Z,36.90
2023-05-11T01:10:42.907Z,33.42
2023-05-11T01:13:18.552Z,34.00
2023-05-11T01:15:51.915Z,37.60
2023-05-11T01:18:31.925Z,33.88
2023-05-11T01:21:06.979Z,37.17
2023-05-11T01:23:50.998Z,36.55
2023-05-11T01:26:50.424Z,34.90
2023-05-11T01:29:59.791Z,33.92
2023-05-11T01:32:35.018Z,36.77
2023-05-11T01:35:07.820Z,39.33
2023-05-11T01:37:36.966Z,40.05
2023-05-11T01:40:09.545Z,38.15
2023-05-11T01:42:42.885Z,41.17
2023-05-11T01:45:12.619Z,43.88
2023-05-11T01:47:44.578Z,35.67
2023-05-11T01:50:13.005Z,39.55
2023-05-11T01:52:41.802Z,45.55
2023-05-11T01:55:11.845Z,39.75
2023-05-11T01:57:40.733Z,40.22
2023-05-11T02:00:09.971Z,39.10
2023-05-11T02:02:45.161Z,41.27
2023-05-11T02:05:16.673Z,39.80
2023-05-11T02:07:48.590Z,41.30
2023-05-11T02:10:18.517Z,46.08
2023-05-11T02:12:48.215Z,37.78
2023-05-11T02:15:18.197Z,39.50
2023-05-11T02:17:47.944Z,37.63
2023-05-11T02:20:18.445Z,40.28
2023-05-11T02:22:47.656Z,38.72
2023-05-11T02:25:17.742Z,49.80
2023-05-11T02:27:46.096Z,38.58
2023-05-11T02:30:14.545Z,40.03
2023-05-11T02:32:52.970Z,44.20
2023-05-11T02:35:26.411Z,44.17
2023-05-11T02:37:58.929Z,43.40
2023-05-11T02:40:33.006Z,43.55
2023-05-11T02:43:09.361Z,39.93
2023-05-11T02:45:40.793Z,42.97
2023-05-11T02:48:20.620Z,42.92
2023-05-11T02:50:51.457Z,45.33
2023-05-11T02:53:21.154Z,38.58
2023-05-11T02:55:51.657Z,43.40
2023-05-11T02:58:20.612Z,46.80
2023-05-11T03:00:56.294Z,45.58
2023-05-11T03:03:26.514Z,44.80
2023-05-11T03:05:54.723Z,43.20
2023-05-11T03:08:22.923Z,43.17
2023-05-11T03:10:53.131Z,41.60
2023-05-11T03:13:23.557Z,45.42
2023-05-11T03:15:54.043Z,42.13
2023-05-11T03:18:23.300Z,45.90
2023-05-11T03:20:53.103Z,44.97
2023-05-11T03:23:23.429Z,49.03
2023-05-11T03:25:52.168Z,45.88
2023-05-11T03:28:22.899Z,44.38
2023-05-11T03:31:00.068Z,46.53
2023-05-11T03:33:28.325Z,43.00
2023-05-11T03:35:59.619Z,44.70
2023-05-11T03:38:30.726Z,51.63
2023-05-11T03:41:01.302Z,46.30
2023-05-11T03:43:35.679Z,46.67
2023-05-11T03:46:05.196Z,49.45
2023-05-11T03:48:35.052Z,43.45
2023-05-11T03:51:06.252Z,46.50
2023-05-11T03:53:35.037Z,43.85
2023-05-11T03:56:04.389Z,44.83
2023-05-11T03:58:32.927Z,49.73
2023-05-11T04:01:01.188Z,47.10
2023-05-11T04:03:29.474Z,46.60
2023-05-11T04:05:57.631Z,46.83
2023-05-11T04:08:27.673Z,51.00
2023-05-11T04:10:55.798Z,50.33
2023-05-11T04:13:24.006Z,48.78
2023-05-11T04:15:54.205Z,50.50
2023-05-11T04:18:22.430Z,54.95
2023-05-11T04:20:50.731Z,52.83
2023-05-11T04:23:18.796Z,50.83
2023-05-11T04:25:48.288Z,61.70
2023-05-11T04:28:16.427Z,66.20
2023-05-11T04:30:44.464Z,62.35
2023-05-11T04:33:14.671Z,52.27
2023-05-11T04:35:42.801Z,57.83
2023-05-11T04:38:11.104Z,59.55
2023-05-11T04:40:39.235Z,62.78
2023-05-11T04:43:08.688Z,62.75
2023-05-11T04:45:37.096Z,53.88
2023-05-11T04:48:06.394Z,62.00
2023-05-11T04:50:34.769Z,57.38
2023-05-11T04:53:03.071Z,59.33
2023-05-11T04:55:31.384Z,62.33
2023-05-11T04:58:00.789Z,63.72
2023-05-11T05:00:30.706Z,59.28
2023-05-11T05:02:58.848Z,65.38
2023-05-11T05:05:27.637Z,65.63
2023-05-11T05:07:55.823Z,60.80
2023-05-11T05:10:24.295Z,69.88
2023-05-11T05:12:52.452Z,66.30
2023-05-11T05:15:21.254Z,54.15
2023-05-11T05:17:50.803Z,64.20
2023-05-11T05:20:19.764Z,56.20
2023-05-11T05:22:48.268Z,54.30
2023-05-11T05:25:16.880Z,57.35
2023-05-11T05:27:45.006Z,56.40
2023-05-11T05:30:18.634Z,56.20
2023-05-11T05:32:46.930Z,60.72
2023-05-11T05:35:16.436Z,52.88
2023-05-11T05:37:45.076Z,50.70
2023-05-11T05:40:13.718Z,58.38
2023-05-11T05:42:47.078Z,52.00
2023-05-11T05:45:19.837Z,51.00
2023-05-11T05:47:49.340Z,49.88
2023-05-11T05:50:19.815Z,49.43
2023-05-11T05:52:48.255Z,44.92
2023-05-11T05:55:16.795Z,45.43
2023-05-11T05:57:46.691Z,40.38
2023-05-11T06:00:15.780Z,41.85
2023-05-11T06:02:44.066Z,43.90
2023-05-11T06:05:23.693Z,34.50
2023-05-11T06:08:08.392Z,32.42
2023-05-11T06:10:38.983Z,27.95
2023-05-11T06:13:09.178Z,26.00
2023-05-11T06:15:41.056Z,29.35
2023-05-11T06:18:18.142Z,29.33
2023-05-11T06:20:47.649Z,26.33
2023-05-11T06:23:17.178Z,24.88
2023-05-11T06:25:46.093Z,23.17
2023-05-11T06:28:14.529Z,23.17
2023-05-11T06:30:42.606Z,23.30
2023-05-11T06:33:11.247Z,24.63
2023-05-11T06:35:41.097Z,22.92
2023-05-11T06:38:13.871Z,21.67
2023-05-11T06:40:42.531Z,21.65
2023-05-11T06:43:10.707Z,18.80
2023-05-11T06:45:47.519Z,17.25
2023-05-11T06:48:16.441Z,21.43
2023-05-11T06:50:44.638Z,19.77
2023-05-11T06:53:18.042Z,20.48
2023-05-11T06:55:46.340Z,17.85
2023-05-11T06:58:14.503Z,19.70
2023-05-11T07:00:42.599Z,21.67
2023-05-11T07:03:10.877Z,22.42
2023-05-11T07:05:40.037Z,23.15
2023-05-11T07:08:08.110Z,23.48
2023-05-11T07:10:37.657Z,21.67
2023-05-11T07:13:05.741Z,19.40
2023-05-11T07:15:33.908Z,22.63
2023-05-11T07:18:02.256Z,18.80
2023-05-11T07:20:30.443Z,21.15
2023-05-11T07:22:59.316Z,16.08
2023-05-11T07:25:27.540Z,18.45
2023-05-11T07:27:56.974Z,17.52
2023-05-11T07:30:26.882Z,17.63
2023-05-11T07:32:55.060Z,11.37
2023-05-11T07:35:24.319Z,11.13
2023-05-11T07:37:53.086Z,13.50
2023-05-11T07:40:21.431Z,26.33
2023-05-11T07:42:49.898Z,12.00
2023-05-11T07:45:19.497Z,11.18
2023-05-11T07:47:47.697Z,11.15
2023-05-11T07:50:16.987Z,13.60
2023-05-11T07:52:45.570Z,13.50
2023-05-11T07:55:13.571Z,7.93
2023-05-11T07:57:41.998Z,12.13
2023-05-11T08:00:11.651Z,8.20
2023-05-11T08:02:43.900Z,7.45
2023-05-11T08:05:12.510Z,9.90
2023-05-11T08:07:41.703Z,13.23
2023-05-11T08:10:10.717Z,9.10
2023-05-11T08:12:39.152Z,10.68
2023-05-11T08:15:08.256Z,8.50
2023-05-11T08:17:37.383Z,7.50
2023-05-11T08:20:08.592Z,7.60
2023-05-11T08:22:36.697Z,6.55
2023-05-11T08:25:05.560Z,5.97
2023-05-11T08:27:33.680Z,8.60
2023-05-11T08:30:01.785Z,7.88
2023-05-11T08:32:30.292Z,5.80
2023-05-11T08:34:58.966Z,4.15
2023-05-11T08:37:28.508Z,4.25
2023-05-11T08:39:56.766Z,3.72
2023-05-11T08:42:26.065Z,7.03
2023-05-11T08:44:59.218Z,9.70
2023-05-11T08:47:28.176Z,8.13
2023-05-11T08:49:58.112Z,7.77
2023-05-11T08:52:27.998Z,6.40
2023-05-11T08:54:56.082Z,7.95
2023-05-11T08:57:25.020Z,6.60
2023-05-11T08:59:54.246Z,5.57
2023-05-11T09:02:22.349Z,7.07
2023-05-11T09:04:51.927Z,8.05
2023-05-11T09:07:20.642Z,6.60
2023-05-11T09:09:50.119Z,5.07
2023-05-11T09:12:18.696Z,5.47
2023-05-11T09:14:47.537Z,7.90
2023-05-11T09:17:15.715Z,7.17
2023-05-11T09:20:00.378Z,6.80
2023-05-11T09:22:31.536Z,8.35
2023-05-11T09:25:03.904Z,14.40
2023-05-11T09:27:32.376Z,15.48
2023-05-11T09:30:12.235Z,20.20
2023-05-11T09:32:54.185Z,20.00
2023-05-11T09:35:26.722Z,13.60
2023-05-11T09:38:04.430Z,14.50
2023-05-11T09:40:36.986Z,15.63
2023-05-11T09:43:16.718Z,15.35
2023-05-11T09:45:46.991Z,17.52
2023-05-11T09:48:26.075Z,10.38
2023-05-11T09:51:00.850Z,9.60
2023-05-11T09:53:37.305Z,11.70
2023-05-11T09:56:07.339Z,9.13
2023-05-11T09:58:50.258Z,9.90
2023-05-11T10:01:20.505Z,9.45
2023-05-11T10:04:02.614Z,8.07
2023-05-11T10:06:48.465Z,8.50
2023-05-11T10:09:18.419Z,9.38
2023-05-11T10:11:48.028Z,10.10
2023-05-11T10:14:16.670Z,11.80
2023-05-11T10:16:45.438Z,12.65
2023-05-11T10:19:14.850Z,13.90
2023-05-11T10:21:43.070Z,11.30
2023-05-11T10:24:12.047Z,11.93
2023-05-11T10:26:40.417Z,11.63
2023-05-11T10:29:11.522Z,10.13
2023-05-11T10:31:40.084Z,10.30
2023-05-11T10:34:08.523Z,7.15
2023-05-11T10:36:36.862Z,5.03
2023-05-11T10:39:05.060Z,6.88
2023-05-11T10:41:54.150Z,6.15
2023-05-11T10:44:44.046Z,7.47
2023-05-11T10:47:27.909Z,7.70
2023-05-11T10:50:14.367Z,7.82
2023-05-11T10:53:05.207Z,8.93
2023-05-11T10:55:47.357Z,10.73
2023-05-11T10:58:19.867Z,9.43
2023-05-11T11:01:37.302Z,9.60
2023-05-11T11:04:07.294Z,9.27
2023-05-11T11:06:37.441Z,11.25
2023-05-11T11:09:07.989Z,10.25
2023-05-11T11:11:49.618Z,9.85
2023-05-11T11:14:20.982Z,7.80
2023-05-11T11:17:33.889Z,9.93
2023-05-11T11:20:10.035Z,14.02
2023-05-11T11:22:47.299Z,11.10
2023-05-11T11:25:17.632Z,10.70
2023-05-11T11:27:58.150Z,10.32
2023-05-11T11:30:28.823Z,9.35
2023-05-11T11:33:34.491Z,11.90
2023-05-11T11:36:02.883Z,11.23
2023-05-11T11:38:33.422Z,12.73
2023-05-11T11:41:02.373Z,10.73
2023-05-11T11:43:45.725Z,10.98
2023-05-11T11:46:27.184Z,10.65
2023-05-11T11:49:09.603Z,7.32
2023-05-11T11:51:40.163Z,7.10
2023-05-11T11:54:09.082Z,8.65
2023-05-11T11:56:42.268Z,5.00
2023-05-11T11:59:13.876Z,5.78
2023-05-11T12:01:43.888Z,6.75
2023-05-11T12:04:33.007Z,6.20
2023-05-11T12:07:01.356Z,4.28
2023-05-11T12:09:29.908Z,4.32
2023-05-11T12:11:59.467Z,4.50
2023-05-11T12:14:28.337Z,4.00
2023-05-11T12:17:04.795Z,3.70
2023-05-11T12:19:34.185Z,4.90
2023-05-11T12:22:02.524Z,3.53
2023-05-11T12:24:31.861Z,4.50
2023-05-11T12:27:03.628Z,5.40
2023-05-11T12:29:32.131Z,2.97
2023-05-11T12:32:00.586Z,2.83
2023-05-11T12:34:28.702Z,2.88
2023-05-11T12:37:00.481Z,2.00
2023-05-11T12:39:29.423Z,2.40
2023-05-11T12:41:58.427Z,3.47
2023-05-11T12:44:27.559Z,3.13
2023-05-11T12:46:55.812Z,2.63
2023-05-11T12:49:26.834Z,3.85
2023-05-11T12:52:07.818Z,2.75
2023-05-11T12:54:38.092Z,2.95
2023-05-11T12:57:08.644Z,2.47
2023-05-11T12:59:38.459Z,3.03
2023-05-11T13:02:11.085Z,3.50
2023-05-11T13:04:40.890Z,4.00
2023-05-11T13:07:11.680Z,4.28
2023-05-11T13:09:40.575Z,8.60
2023-05-11T13:12:13.984Z,4.38
2023-05-11T13:14:42.419Z,4.40
2023-05-11T13:17:10.705Z,5.82
2023-05-11T13:19:39.421Z,5.83
2023-05-11T13:22:08.264Z,4.30
2023-05-11T13:24:37.678Z,4.70
2023-05-11T13:27:06.375Z,3.60
2023-05-11T13:29:34.747Z,4.27
2023-05-11T13:32:02.896Z,6.65
2023-05-11T13:34:31.070Z,4.03
2023-05-11T13:36:59.188Z,3.80
2023-05-11T13:39:27.199Z,7.00
2023-05-11T13:41:56.635Z,3.50
2023-05-11T13:44:24.684Z,3.28
2023-05-11T13:46:52.900Z,2.83
2023-05-11T13:49:21.604Z,3.30
2023-05-11T13:51:49.802Z,3.10
2023-05-11T13:54:17.830Z,2.70
2023-05-11T13:56:46.151Z,2.60
2023-05-11T13:59:15.551Z,2.90
2023-05-11T14:01:44.013Z,3.20
2023-05-11T14:04:12.129Z,3.08
2023-05-11T14:06:40.207Z,3.10
2023-05-11T14:09:08.287Z,4.20
2023-05-11T14:11:38.562Z,2.40
2023-05-11T14:14:07.527Z,2.63
2023-05-11T14:16:37.205Z,2.72
2023-05-11T14:19:05.426Z,2.53
2023-05-11T14:21:33.604Z,3.20
2023-05-11T14:24:11.584Z,3.03
2023-05-11T14:26:40.680Z,3.50
2023-05-11T14:29:09.398Z,2.80
2023-05-11T14:31:39.642Z,4.15
2023-05-11T14:34:07.657Z,7.10
2023-05-11T14:36:35.748Z,4.85
2023-05-11T14:39:03.933Z,7.30
2023-05-11T14:41:32.093Z,5.47
2023-05-11T14:44:00.267Z,4.00
2023-05-11T14:46:28.700Z,3.30
2023-05-11T14:48:58.168Z,6.25
2023-05-11T14:51:26.346Z,4.88
2023-05-11T14:53:54.608Z,4.88
2023-05-11T14:56:23.354Z,5.30
2023-05-11T14:58:51.709Z,4.97
2023-05-11T15:01:20.025Z,5.10
2023-05-11T15:03:48.386Z,6.30
2023-05-11T15:06:21.429Z,4.60
2023-05-11T15:08:50.973Z,6.70
2023-05-11T15:11:19.146Z,5.57
2023-05-11T15:13:48.362Z,11.90
2023-05-11T15:16:16.542Z,16.88
2023-05-11T15:18:44.659Z,8.40
2023-05-11T15:21:12.770Z,6.00
2023-05-11T15:23:42.203Z,7.95
2023-05-11T15:26:10.429Z,5.43
2023-05-11T15:28:38.441Z,8.63
2023-05-11T15:31:06.545Z,6.80
2023-05-11T15:33:34.623Z,4.70
2023-05-11T15:36:02.726Z,6.88
2023-05-11T15:38:31.157Z,7.03
2023-05-11T15:41:00.707Z,4.95
2023-05-11T15:43:28.793Z,6.00
2023-05-11T15:45:57.049Z,5.70
2023-05-11T15:48:25.858Z,5.97
2023-05-11T15:50:54.601Z,5.85
2023-05-11T15:53:22.589Z,6.22
2023-05-11T15:55:53.453Z,5.60
2023-05-11T15:58:23.305Z,5.37
2023-05-11T16:00:51.960Z,4.38
2023-05-11T16:03:20.590Z,4.93
2023-05-11T16:05:48.917Z,4.20
2023-05-11T16:08:17.406Z,6.13
2023-05-11T16:10:45.648Z,6.47
2023-05-11T16:13:13.737Z,5.00
2023-05-11T16:15:43.245Z,4.60
2023-05-11T16:18:11.398Z,5.18
2023-05-11T16:20:39.552Z,4.20
2023-05-11T16:23:07.581Z,5.00
2023-05-11T16:25:35.615Z,5.03
2023-05-11T16:28:03.721Z,5.80
2023-05-11T16:30:32.400Z,5.00
2023-05-11T16:33:02.137Z,6.50
2023-05-11T16:35:30.611Z,5.30
2023-05-11T16:38:00.692Z,6.82
2023-05-11T16:40:28.779Z,5.18
2023-05-11T16:42:57.748Z,8.52
2023-05-11T16:45:25.789Z,7.07
2023-05-11T16:47:53.888Z,5.38
2023-05-11T16:50:23.587Z,4.78
2023-05-11T16:52:51.707Z,11.15
2023-05-11T16:55:21.356Z,5.20
2023-05-11T16:57:51.470Z,5.13
2023-05-11T17:00:20.136Z,5.47
2023-05-11T17:02:49.591Z,5.50
2023-05-11T17:05:18.917Z,4.43
2023-05-11T17:07:48.440Z,4.93
2023-05-11T17:10:17.285Z,3.95
2023-05-11T17:12:45.547Z,4.32
2023-05-11T17:15:13.619Z,5.20
2023-05-11T17:17:42.247Z,4.68
2023-05-11T17:20:11.267Z,4.60
2023-05-11T17:22:39.389Z,4.25
2023-05-11T17:25:09.897Z,3.78
2023-05-11T17:27:38.088Z,3.97
2023-05-11T17:30:07.298Z,20.47
2023-05-11T17:32:35.605Z,13.68
2023-05-11T17:35:04.064Z,5.70
2023-05-11T17:37:32.699Z,3.90
2023-05-11T17:40:01.141Z,3.85
2023-05-11T17:42:31.587Z,8.82
2023-05-11T17:44:59.616Z,6.13
2023-05-11T17:47:27.668Z,7.38
2023-05-11T17:49:55.829Z,4.22
2023-05-11T17:52:25.111Z,4.70
2023-05-11T17:54:53.233Z,3.92
2023-05-11T17:57:23.281Z,4.20
2023-05-11T17:59:53.538Z,4.45
2023-05-11T18:02:21.699Z,3.80
2023-05-11T18:04:50.328Z,4.38
2023-05-11T18:07:18.635Z,6.80
2023-05-11T18:09:46.785Z,4.13
2023-05-11T18:12:14.846Z,4.60
2023-05-11T18:14:42.963Z,5.97
2023-05-11T18:17:12.862Z,4.70
2023-05-11T18:19:41.285Z,3.40
2023-05-11T18:22:09.369Z,3.75
2023-05-11T18:24:37.469Z,5.60
2023-05-11T18:27:05.996Z,4.82
2023-05-11T18:29:34.139Z,3.72
2023-05-11T18:32:02.211Z,6.03
2023-05-11T18:34:31.991Z,4.28
2023-05-11T18:37:00.148Z,5.25
2023-05-11T18:39:28.490Z,4.20
2023-05-11T18:41:56.675Z,4.65
2023-05-11T18:44:24.706Z,4.30
2023-05-11T18:46:52.864Z,4.68
2023-05-11T18:49:21.733Z,5.10
2023-05-11T18:51:51.543Z,3.80
2023-05-11T18:54:19.575Z,4.95
2023-05-11T18:56:47.696Z,6.60
2023-05-11T18:59:15.847Z,4.65
2023-05-11T19:01:48.225Z,4.53
2023-05-11T19:04:19.621Z,4.10
2023-05-11T19:06:47.984Z,5.10
2023-05-11T19:09:17.549Z,4.72
2023-05-11T19:11:45.696Z,6.50
2023-05-11T19:14:15.741Z,5.50
2023-05-11T19:16:43.862Z,6.90
2023-05-11T19:19:12.713Z,6.15
2023-05-11T19:21:42.420Z,5.95
2023-05-11T19:24:11.500Z,7.65
2023-05-11T19:26:42.711Z,6.05
2023-05-11T19:29:16.857Z,6.10
2023-05-11T19:31:45.066Z,6.70
2023-05-11T19:34:13.132Z,8.98
2023-05-11T19:36:41.353Z,7.30
2023-05-11T19:39:09.699Z,11.27
2023-05-11T19:41:37.758Z,8.30
2023-05-11T19:44:07.162Z,8.02
2023-05-11T19:46:35.267Z,9.00
2023-05-11T19:49:04.049Z,8.00
2023-05-11T19:51:32.487Z,10.43
2023-05-11T19:54:00.573Z,9.40
2023-05-11T19:56:28.985Z,10.32
2023-05-11T19:58:56.983Z,11.15
2023-05-11T20:01:27.222Z,10.40
2023-05-11T20:03:56.057Z,9.85
2023-05-11T20:06:25.584Z,12.45
2023-05-11T20:08:54.117Z,11.07
2023-05-11T20:11:22.369Z,12.27
2023-05-11T20:13:51.097Z,11.05
2023-05-11T20:16:19.467Z,12.70
2023-05-11T20:18:49.552Z,13.50
2023-05-11T20:21:17.655Z,16.90
2023-05-11T20:23:45.714Z,14.20
2023-05-11T20:26:13.757Z,14.13
2023-05-11T20:28:41.822Z,14.90
2023-05-11T20:31:10.957Z,15.98
2023-05-11T20:36:11.494Z,18.57
2023-05-11T20:38:39.534Z,18.05
2023-05-11T20:41:07.630Z,16.27
2023-05-11T20:43:35.751Z,18.42
2023-05-11T20:46:04.684Z,15.85
2023-05-11T20:48:40.670Z,16.48
2023-05-11T20:51:11.225Z,21.42
2023-05-11T20:53:39.299Z,16.52
2023-05-11T20:56:08.708Z,17.63
2023-05-11T20:58:36.748Z,18.63
2023-05-11T21:01:04.866Z,17.88
2023-05-11T21:03:32.979Z,21.05
2023-05-11T21:06:01.059Z,18.30
2023-05-11T21:08:30.454Z,21.83
2023-05-11T21:10:58.505Z,21.10
2023-05-11T21:13:26.532Z,18.80
2023-05-11T21:15:54.589Z,19.77
2023-05-11T21:18:22.666Z,22.73
2023-05-11T21:20:50.708Z,19.30
2023-05-11T21:23:18.737Z,23.63
2023-05-11T21:25:52.953Z,18.55
2023-05-11T21:28:21.069Z,22.20
2023-05-11T21:30:49.978Z,21.97
2023-05-11T21:33:18.123Z,23.48
2023-05-11T21:35:46.312Z,20.50
2023-05-11T21:38:15.053Z,22.08
2023-05-11T21:40:43.176Z,18.80
2023-05-11T21:43:13.989Z,18.33
2023-05-11T21:45:42.183Z,15.77
2023-05-11T21:48:10.202Z,13.43
2023-05-11T21:50:38.283Z,16.88
2023-05-11T21:53:06.450Z,15.63
2023-05-11T21:55:34.441Z,14.20
2023-05-11T21:58:03.585Z,13.15
2023-05-11T22:00:34.153Z,13.80
2023-05-11T22:03:02.679Z,13.77
2023-05-11T22:05:30.798Z,12.13
2023-05-11T22:08:13.230Z,12.98
2023-05-11T22:10:42.803Z,14.40
2023-05-11T22:13:10.980Z,15.10
2023-05-11T22:15:40.372Z,15.00
2023-05-11T22:18:08.655Z,15.38
2023-05-11T22:20:36.753Z,16.17
2023-05-11T22:23:04.894Z,18.40
2023-05-11T22:25:33.214Z,16.95
2023-05-11T22:28:01.436Z,15.40
2023-05-11T22:30:29.494Z,17.65
2023-05-11T22:32:59.117Z,17.90
2023-05-11T22:35:27.336Z,18.85
2023-05-11T22:37:55.425Z,17.52
2023-05-11T22:40:28.000Z,20.25
2023-05-11T22:42:56.050Z,20.95
2023-05-11T22:45:24.155Z,25.08
2023-05-11T22:47:52.278Z,23.33
2023-05-11T22:50:22.265Z,26.13
2023-05-11T22:52:50.600Z,24.38
2023-05-11T22:55:19.063Z,21.92
2023-05-11T22:57:47.139Z,26.38
2023-05-11T23:00:15.771Z,26.25
2023-05-11T23:02:44.080Z,30.55
2023-05-11T23:05:12.286Z,27.50
2023-05-11T23:07:41.716Z,30.70
2023-05-11T23:10:11.177Z,29.73
2023-05-11T23:12:39.397Z,30.67
2023-05-11T23:15:09.625Z,32.13
2023-05-11T23:17:37.817Z,31.90
2023-05-11T23:20:07.088Z,29.43
2023-05-11T23:22:35.244Z,35.80
2023-05-11T23:25:05.320Z,33.60
2023-05-11T23:27:33.395Z,33.33
2023-05-11T23:30:01.541Z,34.10
2023-05-11T23:32:29.886Z,36.38
2023-05-11T23:34:58.259Z,33.90
2023-05-11T23:37:26.501Z,34.00
2023-05-11T23:39:54.549Z,31.17
2023-05-11T23:42:24.003Z,33.58
2023-05-11T23:44:52.543Z,33.10
2023-05-11T23:47:20.770Z,32.90
2023-05-11T23:49:49.080Z,32.38
2023-05-11T23:52:17.296Z,33.33
2023-05-11T23:54:45.379Z,31.77
2023-05-11T23:57:15.830Z,30.60
2023-05-11T23:59:45.320Z,34.60
